首页
METAR-TAF:

METAR-TAF

机场 :

Sullivan County International Airport

Monticello, 紐約州, 美国

纬度: 41-42N, 经度: 074-48W, 海拔: 428米

当前天气观测

该预报发布于1小时和2分钟前的17:56 UTC
风速20节,风向西北,有时为29节阵风
温度 9°C
湿度 49%
气压 1006 hPa
能見度: 16.1公里
多云层高于4300英尺

METAR: KMSV 021756Z AUTO 31020G29KT 10SM BKN043 09/M01 A2971 RMK AO2 PK WND 30029/1756 SLP069 T00941011 10094 20022 58017

时间: 14:58 (18:58 UTC)


TAF: 丢失

超过4000个机场的气象观测和天气预报(METAR&TAF报告)。

可查询的气象台以黄色和红色小点在地图上表示。

将鼠标移到小点上方,可查看气象台名称。

然后点击查看天气观测和预报。

如需切换地图:点击带黑十字的绿色按钮放大地图;点击带横线的绿色按钮缩小地图;或者点击绿色箭头查看邻近地区的地图。


METAR-TAF: